Time;durP1;ratioP1;P1;durP2;ratioP2;P2;SDS_P1;SDS_P2;PMS_P1;PMS_P2;Temp;Humidity;BMP_temperature;BMP_pressure;BME280_temperature;BME280_humidity;BME280_pressure;Samples;Min_cycle;Max_cycle;Signal;HPM_P1;HPM_P2
2024/01/22 00:03:11;;;;;;;3.47;1.67;;;;;;;;;;10546383;27;20058;-77
2024/01/22 00:08:16;;;;;;;1.30;0.50;;;;;;;;;;10578755;27;20047;-78
2024/01/22 00:13:41;;;;;;;3.93;1.63;;;;;;;;;;10559557;27;20058;-78
2024/01/22 00:18:49;;;;;;;4.60;1.60;;;;;;;;;;10546358;27;20039;-77
2024/01/22 00:23:57;;;;;;;2.83;1.60;;;;;;;;;;10577731;27;20353;-76
2024/01/22 00:29:10;;;;;;;4.37;1.80;;;;;;;;;;10581099;27;20054;-77
2024/01/22 00:34:20;;;;;;;5.15;1.80;;;;;;;;;;10557355;27;20042;-76
2024/01/22 00:39:33;;;;;;;4.90;1.83;;;;;;;;;;10575332;27;20043;-77
2024/01/22 00:44:46;;;;;;;8.73;2.40;;;;;;;;;;10538261;27;20051;-76
2024/01/22 00:49:52;;;;;;;2.20;1.60;;;;;;;;;;10576457;27;20057;-76
2024/01/22 00:54:56;;;;;;;1.97;1.17;;;;;;;;;;10559179;27;20057;-77
2024/01/22 01:00:07;;;;;;;1.47;0.83;;;;;;;;;;10572685;27;20047;-77
2024/01/22 01:05:21;;;;;;;3.50;1.30;;;;;;;;;;10555526;27;20379;-76
2024/01/22 01:10:24;;;;;;;3.93;1.90;;;;;;;;;;10572330;27;20859;-77
2024/01/22 01:15:40;;;;;;;3.83;2.10;;;;;;;;;;10581266;27;20043;-77
2024/01/22 01:20:47;;;;;;;0.60;0.60;;;;;;;;;;10571570;27;20044;-77
2024/01/22 01:25:51;;;;;;;1.50;0.70;;;;;;;;;;10565478;27;20347;-77
2024/01/22 01:31:02;;;;;;;0.97;0.73;;;;;;;;;;10576105;27;20472;-76
2024/01/22 01:36:07;;;;;;;1.57;0.57;;;;;;;;;;10560759;27;20047;-76
2024/01/22 01:41:13;;;;;;;2.03;1.10;;;;;;;;;;10548623;27;20031;-78
2024/01/22 01:46:23;;;;;;;1.10;0.90;;;;;;;;;;10561498;27;20050;-77
2024/01/22 01:51:30;;;;;;;1.87;1.30;;;;;;;;;;10558955;27;20127;-77
2024/01/22 01:56:43;;;;;;;1.58;1.08;;;;;;;;;;10564961;27;20128;-78
2024/01/22 02:01:52;;;;;;;1.87;1.20;;;;;;;;;;10559433;27;20141;-77
2024/01/22 02:06:57;;;;;;;1.23;0.40;;;;;;;;;;10579753;27;20146;-78
2024/01/22 02:12:08;;;;;;;2.87;0.90;;;;;;;;;;10576200;27;20101;-78
2024/01/22 02:17:21;;;;;;;0.97;0.77;;;;;;;;;;10556588;27;20518;-77
2024/01/22 02:22:26;;;;;;;0.77;0.77;;;;;;;;;;10583424;27;20062;-76
2024/01/22 02:27:34;;;;;;;1.00;0.93;;;;;;;;;;10564503;27;20039;-77
2024/01/22 02:32:42;;;;;;;1.00;0.90;;;;;;;;;;10552375;27;20676;-76
2024/01/22 02:37:47;;;;;;;1.40;0.60;;;;;;;;;;10559998;27;20053;-76
2024/01/22 02:42:54;;;;;;;2.00;1.00;;;;;;;;;;10570451;27;20048;-77
2024/01/22 02:47:58;;;;;;;2.90;1.37;;;;;;;;;;10581264;27;20047;-76
2024/01/22 02:53:04;;;;;;;1.57;0.57;;;;;;;;;;10580629;27;20107;-77
2024/01/22 02:58:24;;;;;;;3.17;1.13;;;;;;;;;;10567136;27;20047;-77
2024/01/22 03:03:34;;;;;;;0.10;0.10;;;;;;;;;;10584608;27;20047;-77
2024/01/22 03:08:42;;;;;;;2.80;0.53;;;;;;;;;;10569356;27;20100;-77
2024/01/22 03:13:50;;;;;;;0.10;0.10;;;;;;;;;;10551149;27;20039;-77
2024/01/22 03:18:54;;;;;;;0.33;0.33;;;;;;;;;;10564287;27;20047;-76
2024/01/22 03:23:59;;;;;;;0.55;0.25;;;;;;;;;;10580447;27;20046;-77
2024/01/22 03:29:09;;;;;;;1.27;0.50;;;;;;;;;;10561594;27;20061;-76
2024/01/22 03:34:17;;;;;;;1.70;0.70;;;;;;;;;;10564336;27;20043;-76
2024/01/22 03:39:25;;;;;;;1.00;0.57;;;;;;;;;;10562366;27;20484;-77
2024/01/22 03:44:38;;;;;;;0.87;0.60;;;;;;;;;;10576734;27;20057;-76
2024/01/22 03:49:46;;;;;;;0.40;0.33;;;;;;;;;;10548035;27;20093;-78
2024/01/22 03:55:07;;;;;;;2.47;0.43;;;;;;;;;;10566050;27;20049;-77
2024/01/22 04:00:19;;;;;;;1.47;0.47;;;;;;;;;;10560727;27;20058;-76
2024/01/22 04:05:31;;;;;;;0.43;0.43;;;;;;;;;;10569682;27;20031;-76
2024/01/22 04:10:35;;;;;;;1.13;0.73;;;;;;;;;;10567655;27;20067;-77
2024/01/22 04:21:02;;;;;;;1.70;0.70;;;;;;;;;;10566448;27;20043;-77
2024/01/22 04:26:06;;;;;;;2.13;0.93;;;;;;;;;;10590141;27;20039;-76
2024/01/22 04:31:26;;;;;;;2.07;0.60;;;;;;;;;;10589872;27;20101;-76
2024/01/22 04:36:31;;;;;;;1.03;0.50;;;;;;;;;;10586913;27;20051;-76
2024/01/22 04:47:08;;;;;;;1.93;0.77;;;;;;;;;;10597192;27;20061;-76
2024/01/22 04:52:13;;;;;;;1.30;0.30;;;;;;;;;;10580744;27;20083;-77
2024/01/22 04:57:20;;;;;;;0.97;0.60;;;;;;;;;;10578567;27;20038;-77
2024/01/22 05:02:27;;;;;;;;;;;;;;;;;;10584508;27;20047;-77
2024/01/22 05:07:35;;;;;;;1.20;0.40;;;;;;;;;;10579255;27;19938;-76
2024/01/22 05:12:44;;;;;;;1.00;0.30;;;;;;;;;;10580318;27;20042;-78
2024/01/22 05:17:50;;;;;;;2.23;0.70;;;;;;;;;;10560634;27;20055;-77
2024/01/22 05:23:00;;;;;;;1.40;0.40;;;;;;;;;;10583304;27;20040;-77
2024/01/22 05:28:13;;;;;;;3.20;0.33;;;;;;;;;;10577907;27;20166;-78
2024/01/22 05:33:25;;;;;;;0.20;0.20;;;;;;;;;;10564290;27;20043;-77
2024/01/22 05:38:45;;;;;;;1.00;0.40;;;;;;;;;;10560634;27;20195;-78
2024/01/22 05:44:05;;;;;;;0.70;0.50;;;;;;;;;;10564578;27;20037;-78
2024/01/22 05:49:11;;;;;;;0.20;0.20;;;;;;;;;;10581477;27;20062;-78
2024/01/22 05:54:28;;;;;;;2.30;0.60;;;;;;;;;;10585226;27;20294;-77
2024/01/22 05:59:32;;;;;;;3.63;0.63;;;;;;;;;;10583686;27;20063;-76
2024/01/22 06:04:41;;;;;;;0.80;0.33;;;;;;;;;;10568856;27;20047;-76
2024/01/22 06:09:53;;;;;;;0.50;0.27;;;;;;;;;;10575255;27;20051;-77
2024/01/22 06:15:12;;;;;;;0.20;0.17;;;;;;;;;;10589356;27;20515;-77
2024/01/22 06:20:19;;;;;;;3.17;1.07;;;;;;;;;;10570259;27;20047;-77
2024/01/22 06:25:24;;;;;;;0.87;0.63;;;;;;;;;;10544262;27;20059;-78
2024/01/22 06:30:32;;;;;;;0.93;0.57;;;;;;;;;;10588927;27;20039;-76
2024/01/22 06:35:39;;;;;;;4.30;0.80;;;;;;;;;;10590032;27;20043;-76
2024/01/22 06:40:45;;;;;;;4.47;0.90;;;;;;;;;;10582022;27;20129;-77
2024/01/22 06:45:55;;;;;;;0.40;0.40;;;;;;;;;;10565451;27;20126;-78
2024/01/22 06:51:08;;;;;;;2.37;1.13;;;;;;;;;;10571431;27;20050;-78
2024/01/22 06:56:13;;;;;;;0.57;0.50;;;;;;;;;;10587385;27;20073;-77
2024/01/22 07:01:34;;;;;;;6.77;0.93;;;;;;;;;;10587427;27;20051;-78
2024/01/22 07:06:38;;;;;;;1.30;0.53;;;;;;;;;;10569020;27;20464;-78
2024/01/22 07:11:43;;;;;;;0.23;0.23;;;;;;;;;;10569414;27;20047;-78
2024/01/22 07:16:52;;;;;;;6.15;0.90;;;;;;;;;;10580260;27;20678;-78
2024/01/22 07:21:56;;;;;;;1.57;0.73;;;;;;;;;;10585329;27;20075;-77
2024/01/22 07:27:12;;;;;;;2.47;0.95;;;;;;;;;;10586431;27;20074;-79
2024/01/22 07:32:36;;;;;;;0.82;0.60;;;;;;;;;;10557439;27;20585;-78
2024/01/22 07:37:44;;;;;;;1.27;0.40;;;;;;;;;;10578682;27;20163;-78
2024/01/22 07:43:30;;;;;;;1.80;0.95;;;;;;;;;;10579908;27;20165;-78
2024/01/22 07:48:42;;;;;;;6.82;1.30;;;;;;;;;;10580851;27;20039;-76
2024/01/22 07:53:45;;;;;;;2.13;1.08;;;;;;;;;;10563582;27;20039;-78
2024/01/22 07:58:53;;;;;;;2.45;0.93;;;;;;;;;;10580463;27;20051;-78
2024/01/22 08:04:08;;;;;;;3.50;0.73;;;;;;;;;;10572309;27;20039;-80
2024/01/22 08:09:16;;;;;;;5.85;1.08;;;;;;;;;;10556626;27;20043;-79
2024/01/22 08:14:26;;;;;;;11.00;1.23;;;;;;;;;;10558635;27;20124;-79
2024/01/22 08:19:37;;;;;;;7.88;1.25;;;;;;;;;;10539964;27;20614;-79
2024/01/22 08:24:48;;;;;;;13.18;2.92;;;;;;;;;;10557457;27;20516;-79
2024/01/22 08:30:06;;;;;;;8.73;1.50;;;;;;;;;;10574144;27;20069;-78
2024/01/22 08:35:12;;;;;;;4.75;1.33;;;;;;;;;;10574115;27;20058;-79
2024/01/22 08:40:21;;;;;;;3.53;1.45;;;;;;;;;;10571766;27;22337;-78
2024/01/22 08:45:26;;;;;;;2.45;0.90;;;;;;;;;;10572526;27;20402;-79
2024/01/22 08:50:40;;;;;;;1.23;0.77;;;;;;;;;;10576134;27;20126;-78
2024/01/22 08:56:02;;;;;;;4.78;0.98;;;;;;;;;;10541258;27;20163;-78
2024/01/22 09:01:07;;;;;;;1.60;0.85;;;;;;;;;;10554786;27;20789;-78
2024/01/22 09:06:14;;;;;;;11.48;1.17;;;;;;;;;;10559423;27;20059;-79
2024/01/22 09:11:27;;;;;;;1.85;1.15;;;;;;;;;;10560773;27;20043;-78
2024/01/22 09:16:35;;;;;;;2.47;1.02;;;;;;;;;;10572710;27;20050;-80
2024/01/22 09:21:41;;;;;;;5.78;2.13;;;;;;;;;;10571518;27;20500;-79
2024/01/22 09:26:46;;;;;;;0.90;0.35;;;;;;;;;;10576037;27;20425;-80
2024/01/22 09:31:55;;;;;;;1.70;0.77;;;;;;;;;;10551200;27;20407;-79
2024/01/22 09:37:09;;;;;;;0.22;0.22;;;;;;;;;;10559507;27;20080;-80
2024/01/22 09:42:15;;;;;;;1.20;0.80;;;;;;;;;;10585917;27;20044;-78
2024/01/22 09:47:26;;;;;;;2.80;1.20;;;;;;;;;;10575569;27;20185;-79
2024/01/22 09:52:36;;;;;;;2.03;0.90;;;;;;;;;;10568795;27;20138;-80
2024/01/22 09:57:45;;;;;;;3.28;0.93;;;;;;;;;;10569122;27;20043;-79
2024/01/22 10:02:53;;;;;;;3.10;0.90;;;;;;;;;;10563946;27;20047;-80
2024/01/22 10:08:06;;;;;;;5.73;1.07;;;;;;;;;;10570653;27;20123;-79
2024/01/22 10:13:12;;;;;;;1.23;0.60;;;;;;;;;;10577692;27;20152;-79
2024/01/22 10:18:23;;;;;;;1.77;0.50;;;;;;;;;;10580845;27;20527;-78
2024/01/22 10:23:34;;;;;;;2.50;0.75;;;;;;;;;;10577842;27;20456;-78
2024/01/22 10:29:10;;;;;;;2.55;1.05;;;;;;;;;;10559480;27;20501;-79
2024/01/22 10:34:23;;;;;;;3.65;0.88;;;;;;;;;;10575510;27;20488;-81
2024/01/22 10:39:37;;;;;;;1.75;0.57;;;;;;;;;;10549763;27;20507;-79
2024/01/22 10:44:55;;;;;;;2.97;1.20;;;;;;;;;;10573990;27;20043;-78
2024/01/22 10:50:14;;;;;;;2.28;0.90;;;;;;;;;;10581247;27;20226;-80
2024/01/22 10:55:32;;;;;;;2.67;0.90;;;;;;;;;;10556079;27;20469;-80
2024/01/22 11:00:40;;;;;;;2.13;0.70;;;;;;;;;;10575919;27;20526;-79
2024/01/22 11:05:45;;;;;;;4.03;0.95;;;;;;;;;;10579861;27;20067;-79
2024/01/22 11:11:13;;;;;;;8.82;0.93;;;;;;;;;;10581366;27;20051;-79
2024/01/22 11:16:24;;;;;;;1.13;0.47;;;;;;;;;;10569382;27;20031;-81
2024/01/22 11:21:52;;;;;;;0.30;0.30;;;;;;;;;;10563822;27;20039;-81
2024/01/22 11:27:09;;;;;;;0.95;0.43;;;;;;;;;;10561395;27;20031;-79
2024/01/22 11:32:25;;;;;;;0.70;0.52;;;;;;;;;;10588611;27;20031;-79
2024/01/22 11:37:33;;;;;;;2.63;0.32;;;;;;;;;;10553947;27;20044;-78
2024/01/22 11:42:46;;;;;;;1.25;0.93;;;;;;;;;;10576349;27;20054;-80
2024/01/22 11:48:06;;;;;;;3.10;0.60;;;;;;;;;;10570634;27;20397;-78
2024/01/22 11:53:15;;;;;;;6.25;0.90;;;;;;;;;;10583703;27;20058;-79
2024/01/22 11:58:23;;;;;;;1.45;1.00;;;;;;;;;;10551690;27;20126;-79
2024/01/22 12:04:07;;;;;;;4.05;0.93;;;;;;;;;;10587238;27;20043;-81
2024/01/22 12:09:34;;;;;;;4.57;1.00;;;;;;;;;;10562256;27;20050;-79
2024/01/22 12:14:40;;;;;;;1.17;0.55;;;;;;;;;;10549919;27;20039;-81
2024/01/22 12:19:56;;;;;;;2.92;0.55;;;;;;;;;;10579296;27;20048;-79
2024/01/22 12:25:07;;;;;;;10.48;1.05;;;;;;;;;;10576910;27;20122;-80
2024/01/22 12:30:29;;;;;;;2.10;0.73;;;;;;;;;;10580390;27;20440;-80
2024/01/22 12:35:42;;;;;;;1.23;0.52;;;;;;;;;;10576014;27;20194;-81
2024/01/22 12:40:46;;;;;;;4.80;1.05;;;;;;;;;;10556686;27;20288;-81
2024/01/22 12:45:51;;;;;;;0.93;0.70;;;;;;;;;;10558423;27;20046;-82
2024/01/22 12:51:07;;;;;;;4.70;1.30;;;;;;;;;;10577494;27;20050;-82
2024/01/22 12:56:13;;;;;;;3.05;1.25;;;;;;;;;;10576794;27;20027;-81
2024/01/22 13:01:26;;;;;;;2.92;1.30;;;;;;;;;;10586043;27;20111;-81
2024/01/22 13:06:35;;;;;;;6.57;1.52;;;;;;;;;;10557796;27;20490;-83
2024/01/22 13:11:40;;;;;;;3.25;0.90;;;;;;;;;;10546866;27;20043;-81
2024/01/22 13:16:45;;;;;;;5.05;1.15;;;;;;;;;;10581906;27;20054;-81
2024/01/22 13:21:58;;;;;;;6.00;1.67;;;;;;;;;;10537659;27;20161;-81
2024/01/22 13:27:13;;;;;;;6.80;1.30;;;;;;;;;;10546564;27;20196;-79
2024/01/22 13:32:23;;;;;;;1.83;1.08;;;;;;;;;;10576996;27;20039;-80
2024/01/22 13:37:38;;;;;;;4.95;1.20;;;;;;;;;;10579238;27;20050;-80
2024/01/22 13:42:49;;;;;;;10.25;1.27;;;;;;;;;;10573284;27;20047;-80
2024/01/22 13:47:57;;;;;;;8.82;1.60;;;;;;;;;;10564124;27;20055;-79
2024/01/22 13:53:17;;;;;;;5.20;1.60;;;;;;;;;;10581591;27;20050;-80
2024/01/22 13:58:22;;;;;;;2.08;1.00;;;;;;;;;;10586236;27;20043;-79
2024/01/22 14:03:26;;;;;;;3.40;0.90;;;;;;;;;;10592415;27;20114;-80
2024/01/22 14:08:32;;;;;;;1.00;0.50;;;;;;;;;;10546463;27;20043;-81
2024/01/22 14:13:51;;;;;;;2.50;0.73;;;;;;;;;;10591244;27;20056;-79
2024/01/22 14:18:56;;;;;;;3.08;0.47;;;;;;;;;;10554559;27;20153;-80
2024/01/22 14:24:01;;;;;;;1.38;0.50;;;;;;;;;;10571347;27;20054;-80
2024/01/22 14:29:18;;;;;;;1.35;0.85;;;;;;;;;;10591132;27;20470;-79
2024/01/22 14:34:26;;;;;;;3.40;0.80;;;;;;;;;;10564798;27;20053;-79
2024/01/22 14:39:38;;;;;;;0.85;0.50;;;;;;;;;;10569060;27;21099;-79
2024/01/22 14:44:47;;;;;;;3.13;0.73;;;;;;;;;;10577784;27;20868;-82
2024/01/22 14:49:54;;;;;;;1.17;0.60;;;;;;;;;;10569146;27;20134;-79
2024/01/22 14:55:00;;;;;;;0.73;0.52;;;;;;;;;;10582091;27;20458;-80
2024/01/22 15:00:09;;;;;;;1.38;0.52;;;;;;;;;;10590698;27;20256;-80
2024/01/22 15:05:14;;;;;;;1.65;0.60;;;;;;;;;;10580019;27;20043;-80
2024/01/22 15:10:20;;;;;;;0.93;0.52;;;;;;;;;;10560973;27;20416;-80
2024/01/22 15:15:29;;;;;;;1.45;0.60;;;;;;;;;;10559365;27;20058;-79
2024/01/22 15:20:46;;;;;;;2.75;0.32;;;;;;;;;;10561607;27;20131;-81
2024/01/22 15:25:53;;;;;;;1.02;0.55;;;;;;;;;;10587306;27;20681;-82
2024/01/22 15:31:03;;;;;;;0.95;0.52;;;;;;;;;;10566242;27;20115;-83
2024/01/22 15:36:10;;;;;;;2.63;1.10;;;;;;;;;;10590481;27;20140;-83
2024/01/22 15:41:19;;;;;;;5.38;0.80;;;;;;;;;;10566982;27;20078;-84
2024/01/22 15:46:26;;;;;;;3.10;1.10;;;;;;;;;;10576663;27;20130;-84
2024/01/22 15:51:50;;;;;;;4.30;0.77;;;;;;;;;;10597792;27;20333;-81
2024/01/22 15:56:57;;;;;;;2.58;0.70;;;;;;;;;;10593670;27;20408;-87
2024/01/22 16:02:19;;;;;;;0.77;0.40;;;;;;;;;;10592557;27;20047;-83
2024/01/22 16:07:26;;;;;;;1.92;0.50;;;;;;;;;;10592411;27;20130;-83
2024/01/22 16:12:33;;;;;;;2.97;0.63;;;;;;;;;;10589017;27;20119;-84
2024/01/22 16:17:43;;;;;;;2.80;0.82;;;;;;;;;;10579959;27;20043;-85
2024/01/22 16:22:50;;;;;;;1.13;0.70;;;;;;;;;;10594516;27;20493;-86
2024/01/22 16:28:09;;;;;;;1.05;0.73;;;;;;;;;;10590441;27;20046;-86
2024/01/22 16:33:35;;;;;;;2.17;0.68;;;;;;;;;;10585480;27;20513;-84
2024/01/22 16:38:52;;;;;;;0.55;0.50;;;;;;;;;;10573585;27;20135;-85
2024/01/22 16:43:59;;;;;;;0.63;0.50;;;;;;;;;;10582647;27;20104;-86
2024/01/22 16:49:05;;;;;;;0.70;0.40;;;;;;;;;;10583386;27;20043;-84
2024/01/22 16:54:19;;;;;;;0.75;0.63;;;;;;;;;;10551052;27;20492;-83
2024/01/22 16:59:34;;;;;;;1.25;0.50;;;;;;;;;;10615849;27;20112;-84
2024/01/22 17:04:50;;;;;;;1.77;0.50;;;;;;;;;;10609230;27;20035;-85
2024/01/22 17:10:13;;;;;;;1.15;0.50;;;;;;;;;;10619721;27;20425;-84
2024/01/22 17:15:17;;;;;;;1.60;0.70;;;;;;;;;;10573674;27;20397;-83
2024/01/22 17:20:23;;;;;;;0.40;0.30;;;;;;;;;;10608366;27;20156;-84
2024/01/22 17:25:55;;;;;;;0.30;0.30;;;;;;;;;;10612593;27;20408;-84
2024/01/22 17:31:03;;;;;;;1.00;0.80;;;;;;;;;;10616345;27;20116;-84
2024/01/22 17:36:15;;;;;;;1.13;0.50;;;;;;;;;;10610824;27;20271;-86
2024/01/22 17:41:31;;;;;;;1.42;0.55;;;;;;;;;;10592234;27;20039;-82
2024/01/22 17:46:42;;;;;;;0.20;0.20;;;;;;;;;;10587844;27;20959;-84
2024/01/22 17:51:47;;;;;;;0.70;0.40;;;;;;;;;;10613311;27;20412;-84
2024/01/22 17:56:56;;;;;;;2.20;0.60;;;;;;;;;;10621384;27;20047;-83
2024/01/22 18:02:02;;;;;;;1.38;0.50;;;;;;;;;;10589682;27;20043;-80
2024/01/22 18:07:16;;;;;;;2.20;0.65;;;;;;;;;;10619314;27;20039;-78
2024/01/22 18:12:24;;;;;;;2.63;0.70;;;;;;;;;;10621299;27;20458;-81
2024/01/22 18:17:36;;;;;;;0.40;0.38;;;;;;;;;;10615511;27;20794;-81
2024/01/22 18:22:43;;;;;;;2.75;0.80;;;;;;;;;;10611337;27;20045;-81
2024/01/22 18:28:03;;;;;;;0.32;0.13;;;;;;;;;;10608739;27;20039;-79
2024/01/22 18:33:07;;;;;;;0.98;0.40;;;;;;;;;;10599089;27;20048;-80
2024/01/22 18:38:15;;;;;;;0.70;0.70;;;;;;;;;;10579013;27;20039;-81
2024/01/22 18:43:26;;;;;;;1.02;0.60;;;;;;;;;;10581586;27;20047;-80
2024/01/22 18:48:34;;;;;;;0.63;0.50;;;;;;;;;;10572340;27;20103;-80
2024/01/22 18:53:41;;;;;;;1.52;0.40;;;;;;;;;;10620809;27;20035;-80
2024/01/22 18:58:55;;;;;;;0.55;0.50;;;;;;;;;;10610046;27;20397;-80
2024/01/22 19:04:02;;;;;;;1.10;0.60;;;;;;;;;;10594016;27;20039;-79
2024/01/22 19:09:06;;;;;;;0.70;0.63;;;;;;;;;;10608272;27;20065;-79
2024/01/22 19:14:15;;;;;;;0.28;0.28;;;;;;;;;;10594039;27;20123;-78
2024/01/22 19:19:27;;;;;;;1.02;0.40;;;;;;;;;;10609969;27;20051;-79
2024/01/22 19:24:34;;;;;;;0.70;0.40;;;;;;;;;;10613654;27;20105;-80
2024/01/22 19:29:41;;;;;;;0.40;0.40;;;;;;;;;;10567910;27;20039;-78
2024/01/22 19:34:46;;;;;;;1.25;0.50;;;;;;;;;;10572194;27;20047;-77
2024/01/22 19:39:57;;;;;;;1.85;0.55;;;;;;;;;;10584820;27;20125;-79
2024/01/22 19:45:08;;;;;;;1.33;0.70;;;;;;;;;;10577907;27;20035;-80
2024/01/22 19:50:17;;;;;;;2.20;0.75;;;;;;;;;;10586170;27;20066;-79
2024/01/22 19:55:19;;;;;;;1.15;0.60;;;;;;;;;;10583806;27;20149;-79
2024/01/22 20:00:30;;;;;;;1.67;0.60;;;;;;;;;;10585024;27;20043;-79
2024/01/22 20:05:38;;;;;;;0.35;0.35;;;;;;;;;;10578726;27;20138;-78
2024/01/22 20:10:50;;;;;;;1.38;0.80;;;;;;;;;;10576847;27;20042;-77
2024/01/22 20:15:57;;;;;;;0.40;0.40;;;;;;;;;;10566108;27;20035;-77
2024/01/22 20:21:07;;;;;;;1.10;0.80;;;;;;;;;;10556027;27;20042;-77
2024/01/22 20:26:12;;;;;;;0.30;0.30;;;;;;;;;;10583717;27;20047;-79
2024/01/22 20:31:18;;;;;;;0.90;0.70;;;;;;;;;;10585548;27;20116;-79
2024/01/22 20:36:24;;;;;;;0.75;0.47;;;;;;;;;;10573867;27;20119;-78
2024/01/22 20:41:31;;;;;;;0.50;0.47;;;;;;;;;;10587372;27;20154;-78
2024/01/22 20:46:36;;;;;;;0.88;0.70;;;;;;;;;;10565478;27;20318;-78
2024/01/22 20:51:43;;;;;;;0.40;0.40;;;;;;;;;;10565392;27;20138;-78
2024/01/22 20:56:50;;;;;;;1.00;0.68;;;;;;;;;;10591795;27;20043;-78
2024/01/22 21:01:59;;;;;;;0.90;0.70;;;;;;;;;;10591194;27;20043;-78
2024/01/22 21:07:05;;;;;;;0.73;0.50;;;;;;;;;;10566147;27;20464;-79
2024/01/22 21:12:20;;;;;;;1.15;0.60;;;;;;;;;;10588097;27;20055;-78
2024/01/22 21:23:14;;;;;;;0.60;0.60;;;;;;;;;;10586607;27;20140;-79
2024/01/22 21:28:19;;;;;;;2.22;0.75;;;;;;;;;;10594557;27;20134;-78
2024/01/22 21:38:46;;;;;;;0.88;0.73;;;;;;;;;;10589241;27;20048;-79
2024/01/22 21:43:56;;;;;;;0.75;0.60;;;;;;;;;;10595939;27;20054;-81
2024/01/22 21:49:10;;;;;;;1.73;1.02;;;;;;;;;;10567979;27;20047;-80
2024/01/22 21:54:21;;;;;;;1.58;0.82;;;;;;;;;;10597945;27;20039;-80
2024/01/22 21:59:33;;;;;;;0.77;0.60;;;;;;;;;;10590714;27;20130;-80
2024/01/22 22:04:40;;;;;;;1.20;0.80;;;;;;;;;;10570339;27;20047;-78
2024/01/22 22:09:46;;;;;;;0.40;0.35;;;;;;;;;;10594205;27;20051;-79
2024/01/22 22:14:55;;;;;;;2.67;1.13;;;;;;;;;;10578695;27;20040;-79
2024/01/22 22:20:09;;;;;;;0.77;0.65;;;;;;;;;;10590266;27;20459;-79
2024/01/22 22:25:14;;;;;;;2.58;0.70;;;;;;;;;;10574770;27;20050;-80
2024/01/22 22:30:19;;;;;;;0.50;0.50;;;;;;;;;;10593029;27;20051;-79
2024/01/22 22:35:32;;;;;;;1.70;0.68;;;;;;;;;;10575373;27;20047;-80
2024/01/22 22:40:39;;;;;;;1.42;0.82;;;;;;;;;;10588126;27;20036;-79
2024/01/22 22:45:45;;;;;;;1.50;0.77;;;;;;;;;;10573561;27;20057;-80
2024/01/22 22:50:57;;;;;;;1.17;0.57;;;;;;;;;;10581890;27;20075;-80
2024/01/22 22:56:02;;;;;;;3.88;1.27;;;;;;;;;;10568364;27;20163;-78
2024/01/22 23:01:06;;;;;;;1.63;1.00;;;;;;;;;;10591889;27;20043;-80
2024/01/22 23:06:14;;;;;;;0.82;0.60;;;;;;;;;;10573463;27;20432;-78
2024/01/22 23:11:25;;;;;;;0.82;0.70;;;;;;;;;;10585269;27;20039;-79
2024/01/22 23:16:37;;;;;;;2.58;0.70;;;;;;;;;;10593514;27;20039;-81
2024/01/22 23:22:04;;;;;;;0.80;0.75;;;;;;;;;;10592560;27;20055;-81
2024/01/22 23:27:09;;;;;;;0.82;0.40;;;;;;;;;;10576535;27;20411;-80
2024/01/22 23:32:17;;;;;;;1.95;0.80;;;;;;;;;;10594547;27;20059;-80
2024/01/22 23:37:29;;;;;;;0.80;0.40;;;;;;;;;;10580872;27;20049;-78
2024/01/22 23:42:35;;;;;;;1.77;0.80;;;;;;;;;;10596452;27;20079;-78
2024/01/22 23:47:41;;;;;;;0.60;0.40;;;;;;;;;;10597387;27;20138;-78
2024/01/22 23:53:14;;;;;;;0.70;0.40;;;;;;;;;;10577511;27;20043;-80
2024/01/22 23:58:19;;;;;;;1.13;0.73;;;;;;;;;;10582571;27;20027;-77
